sensor_id;sensor_type;location;lat;lon;timestamp;temperature;humidity
69715;HTU21D;56981;53.532;49.398;2022-09-03T00:02:08;11.36;67.86
69715;HTU21D;56981;53.532;49.398;2022-09-03T00:08:00;11.25;67.88
69715;HTU21D;56981;53.532;49.398;2022-09-03T00:10:52;11.14;68.68
69715;HTU21D;56981;53.532;49.398;2022-09-03T00:13:32;11.05;68.10
69715;HTU21D;56981;53.532;49.398;2022-09-03T00:16:00;11.01;68.64
69715;HTU21D;56981;53.532;49.398;2022-09-03T00:18:30;10.98;68.39
69715;HTU21D;56981;53.532;49.398;2022-09-03T00:21:03;10.98;69.16
69715;HTU21D;56981;53.532;49.398;2022-09-03T00:23:36;11.00;68.73
69715;HTU21D;56981;53.532;49.398;2022-09-03T00:28:55;10.99;68.52
69715;HTU21D;56981;53.532;49.398;2022-09-03T00:31:35;10.96;68.88
69715;HTU21D;56981;53.532;49.398;2022-09-03T00:34:09;10.94;69.36
69715;HTU21D;56981;53.532;49.398;2022-09-03T00:36:42;10.93;69.72
69715;HTU21D;56981;53.532;49.398;2022-09-03T00:39:14;10.90;69.07
69715;HTU21D;56981;53.532;49.398;2022-09-03T00:44:30;10.96;68.60
69715;HTU21D;56981;53.532;49.398;2022-09-03T00:55:48;10.87;69.87
69715;HTU21D;56981;53.532;49.398;2022-09-03T00:58:27;10.77;70.72
69715;HTU21D;56981;53.532;49.398;2022-09-03T01:00:58;10.78;72.12
69715;HTU21D;56981;53.532;49.398;2022-09-03T01:06:18;10.77;69.14
69715;HTU21D;56981;53.532;49.398;2022-09-03T01:09:16;10.77;70.33
69715;HTU21D;56981;53.532;49.398;2022-09-03T01:15:00;10.78;68.81
69715;HTU21D;56981;53.532;49.398;2022-09-03T01:39:42;10.04;72.12
69715;HTU21D;56981;53.532;49.398;2022-09-03T01:42:28;9.92;72.16
69715;HTU21D;56981;53.532;49.398;2022-09-03T01:53:01;9.86;72.83
69715;HTU21D;56981;53.532;49.398;2022-09-03T01:55:38;9.90;73.96
69715;HTU21D;56981;53.532;49.398;2022-09-03T02:01:40;9.94;73.96
69715;HTU21D;56981;53.532;49.398;2022-09-03T02:04:18;9.98;73.90
69715;HTU21D;56981;53.532;49.398;2022-09-03T02:06:46;10.03;73.26
69715;HTU21D;56981;53.532;49.398;2022-09-03T02:09:14;10.10;73.48
69715;HTU21D;56981;53.532;49.398;2022-09-03T02:11:41;10.20;71.56
69715;HTU21D;56981;53.532;49.398;2022-09-03T02:14:08;10.31;71.53
69715;HTU21D;56981;53.532;49.398;2022-09-03T02:16:35;10.41;71.83
69715;HTU21D;56981;53.532;49.398;2022-09-03T02:19:10;10.50;72.30
69715;HTU21D;56981;53.532;49.398;2022-09-03T02:21:40;10.60;71.05
69715;HTU21D;56981;53.532;49.398;2022-09-03T02:24:08;10.83;69.60
69715;HTU21D;56981;53.532;49.398;2022-09-03T02:26:35;11.19;68.65
69715;HTU21D;56981;53.532;49.398;2022-09-03T02:29:02;11.55;66.98
69715;HTU21D;56981;53.532;49.398;2022-09-03T02:31:28;11.89;65.40
69715;HTU21D;56981;53.532;49.398;2022-09-03T02:33:56;12.28;64.72
69715;HTU21D;56981;53.532;49.398;2022-09-03T02:36:35;12.70;62.91
69715;HTU21D;56981;53.532;49.398;2022-09-03T02:39:03;13.34;61.26
69715;HTU21D;56981;53.532;49.398;2022-09-03T02:41:30;13.61;59.95
69715;HTU21D;56981;53.532;49.398;2022-09-03T02:44:12;14.01;60.08
69715;HTU21D;56981;53.532;49.398;2022-09-03T02:46:40;14.65;56.55
69715;HTU21D;56981;53.532;49.398;2022-09-03T02:49:08;15.13;56.32
69715;HTU21D;56981;53.532;49.398;2022-09-03T02:51:39;15.47;55.81
69715;HTU21D;56981;53.532;49.398;2022-09-03T02:54:07;16.07;52.80
69715;HTU21D;56981;53.532;49.398;2022-09-03T02:56:34;16.61;51.03
69715;HTU21D;56981;53.532;49.398;2022-09-03T02:59:02;16.76;50.45
69715;HTU21D;56981;53.532;49.398;2022-09-03T03:01:28;17.31;50.47
69715;HTU21D;56981;53.532;49.398;2022-09-03T03:03:54;17.94;47.49
69715;HTU21D;56981;53.532;49.398;2022-09-03T03:06:20;18.77;45.02
69715;HTU21D;56981;53.532;49.398;2022-09-03T03:08:48;19.41;43.23
69715;HTU21D;56981;53.532;49.398;2022-09-03T03:11:15;19.03;43.95
69715;HTU21D;56981;53.532;49.398;2022-09-03T03:13:46;19.27;43.52
69715;HTU21D;56981;53.532;49.398;2022-09-03T03:16:13;20.02;42.15
69715;HTU21D;56981;53.532;49.398;2022-09-03T03:18:40;20.65;40.19
69715;HTU21D;56981;53.532;49.398;2022-09-03T03:21:10;21.50;39.23
69715;HTU21D;56981;53.532;49.398;2022-09-03T03:23:38;21.65;38.05
69715;HTU21D;56981;53.532;49.398;2022-09-03T03:26:06;22.02;37.08
69715;HTU21D;56981;53.532;49.398;2022-09-03T03:28:32;22.37;36.25
69715;HTU21D;56981;53.532;49.398;2022-09-03T03:31:19;22.81;34.73
69715;HTU21D;56981;53.532;49.398;2022-09-03T03:33:54;23.21;35.02
69715;HTU21D;56981;53.532;49.398;2022-09-03T03:36:22;23.40;34.31
69715;HTU21D;56981;53.532;49.398;2022-09-03T03:38:48;23.79;33.33
69715;HTU21D;56981;53.532;49.398;2022-09-03T03:43:40;24.28;32.17
69715;HTU21D;56981;53.532;49.398;2022-09-03T03:46:07;24.84;31.09
69715;HTU21D;56981;53.532;49.398;2022-09-03T03:48:33;25.01;30.57
69715;HTU21D;56981;53.532;49.398;2022-09-03T03:51:01;25.10;30.89
69715;HTU21D;56981;53.532;49.398;2022-09-03T03:53:30;25.20;30.48
69715;HTU21D;56981;53.532;49.398;2022-09-03T03:56:07;25.05;30.61
69715;HTU21D;56981;53.532;49.398;2022-09-03T03:58:34;25.32;30.32
69715;HTU21D;56981;53.532;49.398;2022-09-03T04:01:12;24.93;30.38
69715;HTU21D;56981;53.532;49.398;2022-09-03T04:03:39;24.56;32.12
69715;HTU21D;56981;53.532;49.398;2022-09-03T04:06:07;24.60;31.28
69715;HTU21D;56981;53.532;49.398;2022-09-03T04:08:35;24.11;33.04
69715;HTU21D;56981;53.532;49.398;2022-09-03T04:11:02;24.69;32.89
69715;HTU21D;56981;53.532;49.398;2022-09-03T04:13:34;24.88;31.37
69715;HTU21D;56981;53.532;49.398;2022-09-03T04:16:12;24.69;31.23
69715;HTU21D;56981;53.532;49.398;2022-09-03T04:18:39;24.69;31.22
69715;HTU21D;56981;53.532;49.398;2022-09-03T04:21:08;24.66;31.78
69715;HTU21D;56981;53.532;49.398;2022-09-03T04:23:37;24.92;30.50
69715;HTU21D;56981;53.532;49.398;2022-09-03T04:26:04;25.07;30.68
69715;HTU21D;56981;53.532;49.398;2022-09-03T04:28:31;24.92;30.45
69715;HTU21D;56981;53.532;49.398;2022-09-03T04:31:05;25.02;30.45
69715;HTU21D;56981;53.532;49.398;2022-09-03T04:33:32;25.37;30.00
69715;HTU21D;56981;53.532;49.398;2022-09-03T04:36:06;25.48;29.43
69715;HTU21D;56981;53.532;49.398;2022-09-03T04:38:34;24.69;30.57
69715;HTU21D;56981;53.532;49.398;2022-09-03T04:41:00;24.38;31.17
69715;HTU21D;56981;53.532;49.398;2022-09-03T04:43:27;24.11;31.67
69715;HTU21D;56981;53.532;49.398;2022-09-03T04:46:00;24.54;30.03
69715;HTU21D;56981;53.532;49.398;2022-09-03T04:48:28;24.84;30.25
69715;HTU21D;56981;53.532;49.398;2022-09-03T04:51:00;24.30;30.18
69715;HTU21D;56981;53.532;49.398;2022-09-03T04:53:31;24.00;31.49
69715;HTU21D;56981;53.532;49.398;2022-09-03T04:55:57;24.42;31.22
69715;HTU21D;56981;53.532;49.398;2022-09-03T04:58:23;24.26;31.79
69715;HTU21D;56981;53.532;49.398;2022-09-03T05:00:49;24.54;30.82
69715;HTU21D;56981;53.532;49.398;2022-09-03T05:03:15;24.86;30.67
69715;HTU21D;56981;53.532;49.398;2022-09-03T05:05:41;25.05;30.01
69715;HTU21D;56981;53.532;49.398;2022-09-03T05:08:07;24.95;30.07
69715;HTU21D;56981;53.532;49.398;2022-09-03T05:10:35;24.77;30.02
69715;HTU21D;56981;53.532;49.398;2022-09-03T05:13:04;24.27;30.58
69715;HTU21D;56981;53.532;49.398;2022-09-03T05:15:31;24.04;30.94
69715;HTU21D;56981;53.532;49.398;2022-09-03T05:17:58;23.32;31.61
69715;HTU21D;56981;53.532;49.398;2022-09-03T05:20:25;22.22;32.82
69715;HTU21D;56981;53.532;49.398;2022-09-03T05:22:51;21.85;34.71
69715;HTU21D;56981;53.532;49.398;2022-09-03T05:25:18;22.28;34.19
69715;HTU21D;56981;53.532;49.398;2022-09-03T05:27:44;21.93;33.83
69715;HTU21D;56981;53.532;49.398;2022-09-03T05:30:11;22.38;33.76
69715;HTU21D;56981;53.532;49.398;2022-09-03T05:32:39;22.53;34.15
69715;HTU21D;56981;53.532;49.398;2022-09-03T05:35:06;23.00;32.20
69715;HTU21D;56981;53.532;49.398;2022-09-03T05:37:32;23.01;32.72
69715;HTU21D;56981;53.532;49.398;2022-09-03T05:39:58;23.17;32.05
69715;HTU21D;56981;53.532;49.398;2022-09-03T05:42:24;23.24;33.00
69715;HTU21D;56981;53.532;49.398;2022-09-03T05:44:52;23.71;31.84
69715;HTU21D;56981;53.532;49.398;2022-09-03T05:47:19;22.88;32.20
69715;HTU21D;56981;53.532;49.398;2022-09-03T05:49:45;22.49;33.17
69715;HTU21D;56981;53.532;49.398;2022-09-03T05:52:11;23.07;32.64
69715;HTU21D;56981;53.532;49.398;2022-09-03T05:54:37;23.20;32.80
69715;HTU21D;56981;53.532;49.398;2022-09-03T05:57:04;23.27;32.07
69715;HTU21D;56981;53.532;49.398;2022-09-03T05:59:30;23.46;33.21
69715;HTU21D;56981;53.532;49.398;2022-09-03T06:01:56;23.84;31.90
69715;HTU21D;56981;53.532;49.398;2022-09-03T06:04:22;23.76;30.42
69715;HTU21D;56981;53.532;49.398;2022-09-03T06:06:48;22.63;32.56
69715;HTU21D;56981;53.532;49.398;2022-09-03T06:09:17;22.38;32.76
69715;HTU21D;56981;53.532;49.398;2022-09-03T06:11:44;22.34;32.70
69715;HTU21D;56981;53.532;49.398;2022-09-03T06:14:12;21.83;32.67
69715;HTU21D;56981;53.532;49.398;2022-09-03T06:16:40;22.11;33.02
69715;HTU21D;56981;53.532;49.398;2022-09-03T06:19:08;22.32;32.81
69715;HTU21D;56981;53.532;49.398;2022-09-03T06:21:36;22.96;31.27
69715;HTU21D;56981;53.532;49.398;2022-09-03T06:24:16;23.29;31.23
69715;HTU21D;56981;53.532;49.398;2022-09-03T06:26:42;23.76;30.56
69715;HTU21D;56981;53.532;49.398;2022-09-03T06:29:09;24.34;28.58
69715;HTU21D;56981;53.532;49.398;2022-09-03T06:31:35;24.43;29.66
69715;HTU21D;56981;53.532;49.398;2022-09-03T06:34:01;24.70;27.53
69715;HTU21D;56981;53.532;49.398;2022-09-03T06:36:27;24.35;28.08
69715;HTU21D;56981;53.532;49.398;2022-09-03T06:38:56;24.06;28.97
69715;HTU21D;56981;53.532;49.398;2022-09-03T06:41:25;24.01;28.59
69715;HTU21D;56981;53.532;49.398;2022-09-03T06:44:01;23.90;28.78
69715;HTU21D;56981;53.532;49.398;2022-09-03T06:46:31;24.02;29.06
69715;HTU21D;56981;53.532;49.398;2022-09-03T06:48:57;24.03;29.45
69715;HTU21D;56981;53.532;49.398;2022-09-03T06:51:29;24.15;29.74
69715;HTU21D;56981;53.532;49.398;2022-09-03T06:54:07;24.20;29.39
69715;HTU21D;56981;53.532;49.398;2022-09-03T06:56:34;24.47;29.67
69715;HTU21D;56981;53.532;49.398;2022-09-03T06:59:06;24.89;27.31
69715;HTU21D;56981;53.532;49.398;2022-09-03T07:01:33;24.50;28.90
69715;HTU21D;56981;53.532;49.398;2022-09-03T07:04:02;24.99;25.94
69715;HTU21D;56981;53.532;49.398;2022-09-03T07:06:30;25.09;26.91
69715;HTU21D;56981;53.532;49.398;2022-09-03T07:08:57;24.45;27.54
69715;HTU21D;56981;53.532;49.398;2022-09-03T07:11:26;23.84;27.94
69715;HTU21D;56981;53.532;49.398;2022-09-03T07:13:54;23.10;30.13
69715;HTU21D;56981;53.532;49.398;2022-09-03T07:16:26;22.46;30.42
69715;HTU21D;56981;53.532;49.398;2022-09-03T07:18:53;21.48;32.12
69715;HTU21D;56981;53.532;49.398;2022-09-03T07:21:24;20.91;33.12
69715;HTU21D;56981;53.532;49.398;2022-09-03T07:23:51;21.33;33.46
69715;HTU21D;56981;53.532;49.398;2022-09-03T07:26:20;20.80;33.80
69715;HTU21D;56981;53.532;49.398;2022-09-03T07:28:47;20.89;34.40
69715;HTU21D;56981;53.532;49.398;2022-09-03T07:31:29;21.00;34.02
69715;HTU21D;56981;53.532;49.398;2022-09-03T07:33:58;21.25;33.34
69715;HTU21D;56981;53.532;49.398;2022-09-03T07:36:26;21.09;34.56
69715;HTU21D;56981;53.532;49.398;2022-09-03T07:38:55;21.15;33.48
69715;HTU21D;56981;53.532;49.398;2022-09-03T07:41:22;20.83;35.37
69715;HTU21D;56981;53.532;49.398;2022-09-03T07:43:49;21.38;34.09
69715;HTU21D;56981;53.532;49.398;2022-09-03T07:46:17;21.32;34.23
69715;HTU21D;56981;53.532;49.398;2022-09-03T07:48:58;21.30;32.48
69715;HTU21D;56981;53.532;49.398;2022-09-03T07:51:26;21.45;33.80
69715;HTU21D;56981;53.532;49.398;2022-09-03T07:53:55;21.29;32.81
69715;HTU21D;56981;53.532;49.398;2022-09-03T07:56:23;21.33;33.47
69715;HTU21D;56981;53.532;49.398;2022-09-03T07:58:49;21.52;34.01
69715;HTU21D;56981;53.532;49.398;2022-09-03T08:01:18;21.43;33.09
69715;HTU21D;56981;53.532;49.398;2022-09-03T08:03:49;21.60;33.44
69715;HTU21D;56981;53.532;49.398;2022-09-03T08:06:17;21.36;33.83
69715;HTU21D;56981;53.532;49.398;2022-09-03T08:08:43;21.35;33.57
69715;HTU21D;56981;53.532;49.398;2022-09-03T08:11:19;21.43;33.88
69715;HTU21D;56981;53.532;49.398;2022-09-03T08:13:55;21.80;32.81
69715;HTU21D;56981;53.532;49.398;2022-09-03T08:16:32;21.92;33.04
69715;HTU21D;56981;53.532;49.398;2022-09-03T08:18:59;21.81;33.26
69715;HTU21D;56981;53.532;49.398;2022-09-03T08:21:27;22.25;33.19
69715;HTU21D;56981;53.532;49.398;2022-09-03T08:23:55;22.48;32.62
69715;HTU21D;56981;53.532;49.398;2022-09-03T08:26:38;22.67;31.09
69715;HTU21D;56981;53.532;49.398;2022-09-03T08:29:05;21.48;32.72
69715;HTU21D;56981;53.532;49.398;2022-09-03T08:31:32;21.08;34.47
69715;HTU21D;56981;53.532;49.398;2022-09-03T08:34:00;21.35;34.69
69715;HTU21D;56981;53.532;49.398;2022-09-03T08:36:35;21.60;34.08
69715;HTU21D;56981;53.532;49.398;2022-09-03T08:39:04;21.87;34.82
69715;HTU21D;56981;53.532;49.398;2022-09-03T08:46:50;20.69;35.49
69715;HTU21D;56981;53.532;49.398;2022-09-03T08:52:01;20.61;35.83
69715;HTU21D;56981;53.532;49.398;2022-09-03T08:54:30;0.00;36.64
69715;HTU21D;56981;53.532;49.398;2022-09-03T08:57:00;20.86;36.11
69715;HTU21D;56981;53.532;49.398;2022-09-03T08:59:29;20.94;36.26
69715;HTU21D;56981;53.532;49.398;2022-09-03T09:05:04;20.61;35.86
69715;HTU21D;56981;53.532;49.398;2022-09-03T09:07:41;20.06;37.90
69715;HTU21D;56981;53.532;49.398;2022-09-03T09:10:41;20.05;37.43
69715;HTU21D;56981;53.532;49.398;2022-09-03T09:21:34;19.72;37.43
69715;HTU21D;56981;53.532;49.398;2022-09-03T09:24:10;19.70;38.10
69715;HTU21D;56981;53.532;49.398;2022-09-03T09:26:40;19.61;37.94
69715;HTU21D;56981;53.532;49.398;2022-09-03T09:29:08;19.43;38.01
69715;HTU21D;56981;53.532;49.398;2022-09-03T09:31:38;19.72;38.19
69715;HTU21D;56981;53.532;49.398;2022-09-03T09:34:07;19.60;38.04
69715;HTU21D;56981;53.532;49.398;2022-09-03T09:36:50;19.52;38.52
69715;HTU21D;56981;53.532;49.398;2022-09-03T09:39:16;19.54;38.30
69715;HTU21D;56981;53.532;49.398;2022-09-03T09:41:56;19.58;38.43
69715;HTU21D;56981;53.532;49.398;2022-09-03T09:44:24;19.45;37.71
69715;HTU21D;56981;53.532;49.398;2022-09-03T09:46:50;19.36;38.32
69715;HTU21D;56981;53.532;49.398;2022-09-03T09:49:37;19.42;38.47
69715;HTU21D;56981;53.532;49.398;2022-09-03T09:52:10;19.55;38.93
69715;HTU21D;56981;53.532;49.398;2022-09-03T09:54:38;19.62;37.44
69715;HTU21D;56981;53.532;49.398;2022-09-03T09:57:06;19.67;39.01
69715;HTU21D;56981;53.532;49.398;2022-09-03T09:59:33;19.74;38.52
69715;HTU21D;56981;53.532;49.398;2022-09-03T10:02:11;19.82;38.68
69715;HTU21D;56981;53.532;49.398;2022-09-03T10:04:37;19.79;38.94
69715;HTU21D;56981;53.532;49.398;2022-09-03T10:07:22;19.94;38.55
69715;HTU21D;56981;53.532;49.398;2022-09-03T10:09:59;20.01;37.50
69715;HTU21D;56981;53.532;49.398;2022-09-03T10:12:48;19.98;37.24
69715;HTU21D;56981;53.532;49.398;2022-09-03T10:15:21;19.75;38.56
69715;HTU21D;56981;53.532;49.398;2022-09-03T10:23:00;19.79;38.30
69715;HTU21D;56981;53.532;49.398;2022-09-03T10:28:28;20.02;36.39
69715;HTU21D;56981;53.532;49.398;2022-09-03T10:39:46;20.05;37.35
69715;HTU21D;56981;53.532;49.398;2022-09-03T10:56:05;19.81;37.91
69715;HTU21D;56981;53.532;49.398;2022-09-03T11:01:36;19.75;37.24
69715;HTU21D;56981;53.532;49.398;2022-09-03T11:07:06;19.76;36.65
69715;HTU21D;56981;53.532;49.398;2022-09-03T11:09:41;19.63;37.36
69715;HTU21D;56981;53.532;49.398;2022-09-03T11:12:26;19.53;38.00
69715;HTU21D;56981;53.532;49.398;2022-09-03T11:15:01;19.38;37.57
69715;HTU21D;56981;53.532;49.398;2022-09-03T11:17:46;19.22;38.30
69715;HTU21D;56981;53.532;49.398;2022-09-03T11:20:23;19.28;39.32
69715;HTU21D;56981;53.532;49.398;2022-09-03T11:22:53;19.07;38.74
69715;HTU21D;56981;53.532;49.398;2022-09-03T11:25:21;18.96;38.65
69715;HTU21D;56981;53.532;49.398;2022-09-03T11:30:48;19.11;39.20
69715;HTU21D;56981;53.532;49.398;2022-09-03T11:33:20;19.05;38.50
69715;HTU21D;56981;53.532;49.398;2022-09-03T11:35:55;18.99;38.03
69715;HTU21D;56981;53.532;49.398;2022-09-03T11:38:26;19.22;38.04
69715;HTU21D;56981;53.532;49.398;2022-09-03T11:46:26;19.42;36.88
69715;HTU21D;56981;53.532;49.398;2022-09-03T11:48:55;19.43;37.40
69715;HTU21D;56981;53.532;49.398;2022-09-03T11:51:31;19.46;37.97
69715;HTU21D;56981;53.532;49.398;2022-09-03T11:56:50;19.27;38.08
69715;HTU21D;56981;53.532;49.398;2022-09-03T11:59:23;19.22;37.53
69715;HTU21D;56981;53.532;49.398;2022-09-03T12:02:01;19.26;38.27
69715;HTU21D;56981;53.532;49.398;2022-09-03T12:07:12;19.51;37.75
69715;HTU21D;56981;53.532;49.398;2022-09-03T12:18:07;19.58;38.13
69715;HTU21D;56981;53.532;49.398;2022-09-03T12:21:07;19.32;37.08
69715;HTU21D;56981;53.532;49.398;2022-09-03T12:23:47;19.16;37.95
69715;HTU21D;56981;53.532;49.398;2022-09-03T12:26:17;19.27;39.21
69715;HTU21D;56981;53.532;49.398;2022-09-03T12:28:47;19.40;37.64
69715;HTU21D;56981;53.532;49.398;2022-09-03T12:31:17;19.61;38.14
69715;HTU21D;56981;53.532;49.398;2022-09-03T12:33:49;19.61;36.71
69715;HTU21D;56981;53.532;49.398;2022-09-03T12:36:22;19.66;36.74
69715;HTU21D;56981;53.532;49.398;2022-09-03T12:38:49;19.68;37.16
69715;HTU21D;56981;53.532;49.398;2022-09-03T12:41:27;19.75;36.82
69715;HTU21D;56981;53.532;49.398;2022-09-03T12:43:58;19.68;37.94
69715;HTU21D;56981;53.532;49.398;2022-09-03T12:46:27;19.63;37.80
69715;HTU21D;56981;53.532;49.398;2022-09-03T12:49:02;19.62;36.86
69715;HTU21D;56981;53.532;49.398;2022-09-03T12:51:31;19.61;37.39
69715;HTU21D;56981;53.532;49.398;2022-09-03T12:53:58;19.65;37.53
69715;HTU21D;56981;53.532;49.398;2022-09-03T12:56:24;19.72;37.21
69715;HTU21D;56981;53.532;49.398;2022-09-03T12:58:58;19.57;37.24
69715;HTU21D;56981;53.532;49.398;2022-09-03T13:01:32;19.58;37.36
69715;HTU21D;56981;53.532;49.398;2022-09-03T13:04:09;19.60;37.73
69715;HTU21D;56981;53.532;49.398;2022-09-03T13:09:09;19.60;38.24
69715;HTU21D;56981;53.532;49.398;2022-09-03T13:11:35;19.66;38.26
69715;HTU21D;56981;53.532;49.398;2022-09-03T13:14:05;19.63;38.00
69715;HTU21D;56981;53.532;49.398;2022-09-03T13:19:42;19.43;38.20
69715;HTU21D;56981;53.532;49.398;2022-09-03T13:25:08;19.35;38.99
69715;HTU21D;56981;53.532;49.398;2022-09-03T13:31:08;19.22;39.62
69715;HTU21D;56981;53.532;49.398;2022-09-03T13:33:42;19.26;39.45
69715;HTU21D;56981;53.532;49.398;2022-09-03T13:36:16;19.25;39.96
69715;HTU21D;56981;53.532;49.398;2022-09-03T13:39:03;19.18;39.62
69715;HTU21D;56981;53.532;49.398;2022-09-03T13:42:05;19.15;39.24
69715;HTU21D;56981;53.532;49.398;2022-09-03T13:50:01;19.05;41.16
69715;HTU21D;56981;53.532;49.398;2022-09-03T13:55:54;19.05;41.21
69715;HTU21D;56981;53.532;49.398;2022-09-03T14:01:06;18.99;41.10
69715;HTU21D;56981;53.532;49.398;2022-09-03T14:09:20;18.69;41.07
69715;HTU21D;56981;53.532;49.398;2022-09-03T14:14:55;18.69;41.44
69715;HTU21D;56981;53.532;49.398;2022-09-03T14:17:58;18.72;43.10
69715;HTU21D;56981;53.532;49.398;2022-09-03T14:20:29;18.57;41.78
69715;HTU21D;56981;53.532;49.398;2022-09-03T14:26:06;18.27;43.18
69715;HTU21D;56981;53.532;49.398;2022-09-03T14:28:39;18.29;42.98
69715;HTU21D;56981;53.532;49.398;2022-09-03T14:41:56;18.11;46.57
69715;HTU21D;56981;53.532;49.398;2022-09-03T14:56:42;17.72;48.49
69715;HTU21D;56981;53.532;49.398;2022-09-03T14:59:25;17.65;47.34
69715;HTU21D;56981;53.532;49.398;2022-09-03T15:05:06;17.41;50.44
69715;HTU21D;56981;53.532;49.398;2022-09-03T15:07:48;17.33;49.46
69715;HTU21D;56981;53.532;49.398;2022-09-03T15:13:22;17.11;50.92
69715;HTU21D;56981;53.532;49.398;2022-09-03T15:16:03;17.02;51.02
69715;HTU21D;56981;53.532;49.398;2022-09-03T15:24:31;16.40;55.60
69715;HTU21D;56981;53.532;49.398;2022-09-03T15:27:36;16.13;57.84
69715;HTU21D;56981;53.532;49.398;2022-09-03T15:30:13;16.05;59.03
69715;HTU21D;56981;53.532;49.398;2022-09-03T15:38:37;15.78;60.83
69715;HTU21D;56981;53.532;49.398;2022-09-03T15:41:20;15.62;59.12
69715;HTU21D;56981;53.532;49.398;2022-09-03T15:43:49;15.42;58.42
69715;HTU21D;56981;53.532;49.398;2022-09-03T15:55:01;15.01;60.42
69715;HTU21D;56981;53.532;49.398;2022-09-03T16:03:13;14.67;58.56
69715;HTU21D;56981;53.532;49.398;2022-09-03T16:05:56;14.62;61.61
69715;HTU21D;56981;53.532;49.398;2022-09-03T16:08:45;14.52;61.80
69715;HTU21D;56981;53.532;49.398;2022-09-03T16:11:33;14.37;62.08
69715;HTU21D;56981;53.532;49.398;2022-09-03T16:14:11;14.20;63.31
69715;HTU21D;56981;53.532;49.398;2022-09-03T16:16:46;14.12;63.27
69715;HTU21D;56981;53.532;49.398;2022-09-03T16:19:14;13.96;62.82
69715;HTU21D;56981;53.532;49.398;2022-09-03T16:22:02;13.85;62.01
69715;HTU21D;56981;53.532;49.398;2022-09-03T16:24:43;13.75;61.51
69715;HTU21D;56981;53.532;49.398;2022-09-03T16:27:22;13.69;62.09
69715;HTU21D;56981;53.532;49.398;2022-09-03T16:30:08;13.70;63.22
69715;HTU21D;56981;53.532;49.398;2022-09-03T16:35:38;13.70;64.06
69715;HTU21D;56981;53.532;49.398;2022-09-03T17:08:14;12.92;64.31
69715;HTU21D;56981;53.532;49.398;2022-09-03T17:10:48;12.85;64.82
69715;HTU21D;56981;53.532;49.398;2022-09-03T17:22:09;12.62;67.61
69715;HTU21D;56981;53.532;49.398;2022-09-03T17:24:54;12.72;66.92
69715;HTU21D;56981;53.532;49.398;2022-09-03T17:33:34;12.60;68.18
69715;HTU21D;56981;53.532;49.398;2022-09-03T17:36:17;12.57;67.10
69715;HTU21D;56981;53.532;49.398;2022-09-03T17:38:58;12.60;67.21
69715;HTU21D;56981;53.532;49.398;2022-09-03T17:54:55;12.32;68.97
69715;HTU21D;56981;53.532;49.398;2022-09-03T17:57:29;12.34;68.09
69715;HTU21D;56981;53.532;49.398;2022-09-03T18:00:11;12.34;69.29
69715;HTU21D;56981;53.532;49.398;2022-09-03T18:03:10;12.27;69.74
69715;HTU21D;56981;53.532;49.398;2022-09-03T18:05:55;12.08;69.78
69715;HTU21D;56981;53.532;49.398;2022-09-03T18:08:47;12.05;70.16
69715;HTU21D;56981;53.532;49.398;2022-09-03T18:11:26;12.03;70.43
69715;HTU21D;56981;53.532;49.398;2022-09-03T18:14:19;11.96;71.05
69715;HTU21D;56981;53.532;49.398;2022-09-03T18:16:53;11.86;71.12
69715;HTU21D;56981;53.532;49.398;2022-09-03T18:22:28;11.79;69.40
69715;HTU21D;56981;53.532;49.398;2022-09-03T18:25:14;11.74;69.67
69715;HTU21D;56981;53.532;49.398;2022-09-03T18:28:04;11.73;69.09
69715;HTU21D;56981;53.532;49.398;2022-09-03T18:30:50;11.70;70.03
69715;HTU21D;56981;53.532;49.398;2022-09-03T18:33:35;11.67;70.45
69715;HTU21D;56981;53.532;49.398;2022-09-03T18:36:20;11.74;69.16
69715;HTU21D;56981;53.532;49.398;2022-09-03T18:39:24;11.74;69.71
69715;HTU21D;56981;53.532;49.398;2022-09-03T18:45:34;11.63;70.01
69715;HTU21D;56981;53.532;49.398;2022-09-03T18:48:48;11.70;69.87
69715;HTU21D;56981;53.532;49.398;2022-09-03T18:52:24;11.53;69.27
69715;HTU21D;56981;53.532;49.398;2022-09-03T18:54:58;11.51;69.50
69715;HTU21D;56981;53.532;49.398;2022-09-03T19:01:07;11.34;69.84
69715;HTU21D;56981;53.532;49.398;2022-09-03T19:04:53;11.31;68.83
69715;HTU21D;56981;53.532;49.398;2022-09-03T19:13:36;11.29;70.13
69715;HTU21D;56981;53.532;49.398;2022-09-03T19:22:38;11.30;69.74
69715;HTU21D;56981;53.532;49.398;2022-09-03T19:25:27;11.26;69.36
69715;HTU21D;56981;53.532;49.398;2022-09-03T19:28:28;11.31;70.35
69715;HTU21D;56981;53.532;49.398;2022-09-03T19:31:42;11.37;70.38
69715;HTU21D;56981;53.532;49.398;2022-09-03T19:34:41;11.38;70.66
69715;HTU21D;56981;53.532;49.398;2022-09-03T19:38:01;11.31;70.30
69715;HTU21D;56981;53.532;49.398;2022-09-03T19:44:02;11.08;71.11
69715;HTU21D;56981;53.532;49.398;2022-09-03T19:46:53;10.86;72.08
69715;HTU21D;56981;53.532;49.398;2022-09-03T19:53:17;10.87;72.83
69715;HTU21D;56981;53.532;49.398;2022-09-03T19:56:26;10.97;72.77
69715;HTU21D;56981;53.532;49.398;2022-09-03T19:59:19;10.97;72.02
69715;HTU21D;56981;53.532;49.398;2022-09-03T20:02:04;10.96;71.39
69715;HTU21D;56981;53.532;49.398;2022-09-03T20:05:00;11.05;72.01
69715;HTU21D;56981;53.532;49.398;2022-09-03T20:07:48;11.07;71.35
69715;HTU21D;56981;53.532;49.398;2022-09-03T20:10:34;10.99;71.84
69715;HTU21D;56981;53.532;49.398;2022-09-03T20:13:05;10.99;72.57
69715;HTU21D;56981;53.532;49.398;2022-09-03T20:18:48;11.14;71.29
69715;HTU21D;56981;53.532;49.398;2022-09-03T20:21:41;11.14;70.06
69715;HTU21D;56981;53.532;49.398;2022-09-03T20:26:57;11.04;68.78
69715;HTU21D;56981;53.532;49.398;2022-09-03T20:41:22;11.29;70.37
69715;HTU21D;56981;53.532;49.398;2022-09-03T20:46:57;11.33;68.61
69715;HTU21D;56981;53.532;49.398;2022-09-03T20:49:47;11.33;69.36
69715;HTU21D;56981;53.532;49.398;2022-09-03T20:52:20;11.39;71.03
69715;HTU21D;56981;53.532;49.398;2022-09-03T20:55:12;11.49;71.51
69715;HTU21D;56981;53.532;49.398;2022-09-03T21:03:40;11.17;72.87
69715;HTU21D;56981;53.532;49.398;2022-09-03T21:14:03;11.39;71.10
69715;HTU21D;56981;53.532;49.398;2022-09-03T21:24:29;11.52;71.30
69715;HTU21D;56981;53.532;49.398;2022-09-03T21:27:09;11.43;72.64
69715;HTU21D;56981;53.532;49.398;2022-09-03T21:29:48;11.42;72.62
69715;HTU21D;56981;53.532;49.398;2022-09-03T21:35:30;11.55;72.00
69715;HTU21D;56981;53.532;49.398;2022-09-03T21:37:58;11.57;72.22
69715;HTU21D;56981;53.532;49.398;2022-09-03T21:40:35;11.62;72.22
69715;HTU21D;56981;53.532;49.398;2022-09-03T21:43:25;11.60;71.06
69715;HTU21D;56981;53.532;49.398;2022-09-03T21:46:11;11.46;70.33
69715;HTU21D;56981;53.532;49.398;2022-09-03T21:48:54;11.52;69.69
69715;HTU21D;56981;53.532;49.398;2022-09-03T21:51:31;11.56;69.84